Airfield :
LOGIN :

Register | Disclaimer

   EN    FR    IT 

 










Legend :    VFR   Marginal VFR   IFR   Intensive IFR   Very Intensive IFR
Visi :
Ceiling :
>= 8 km
>= 3000ft
5 to 8 km
1000 to 3000 ft
1500m to 5 km
500 to 1000 ft
800 to 1500m
200 to 500 ft
< 800m
< 200 ft
Symbols :   Thunderstorms  Fog  Heavy snow  Heavy precipitations  Wind > 20 kt
SIGMETs :     Misc.  Thunderstorms  Icing  Turbulence  Mountain Waves  Volcanic Ashes






- Airport Elevation : 359 ft
- IATA code : BVA


LFOB - Beauvais

CURRENT METAR :
  • 270830Z AUTO 13012KT 3100 -SN BR OVC003 00/00 Q0993 TEMPO RA OVC007

EXPIRED METARs :
  • 270800Z AUTO 14013KT 3000 -SN BR OVC004 00/00 Q0994 TEMPO 1200 SN OVC007
  • 270730Z AUTO 14015KT 2700 -SN BR OVC003/// ///TCU 01/M00 Q0995 TEMPO 4000 RA OVC007
  • 270700Z AUTO 14014KT 4500 SN BR OVC006 01/00 Q0996 TEMPO 1200 SN OVC002
  • 270630Z AUTO 16014KT 9000 -RA OVC008 03/02 Q0998 TEMPO 1200 SN OVC002
  • 270600Z AUTO 17015KT 7000 -RA OVC010 03/02 Q0999 TEMPO 1200 SN OVC002

TAF TAF LFOB
Valid from the 27 at 06:00 until the 28 at 06:00 UTC


270500Z 2706/2806 17013KT 6000 RA OVC011
TEMPO 2706/2712 4000 RA OVC007
PROB40
TEMPO 2706/2709 1200 SN OVC002
FM271230 33020G35KT 9999 BKN020
PROB30
TEMPO 2713/2714 33025G45KT
BECMG 2716/2718 30015G25KT
BECMG 2718/2720 27008KT
ATIS : +33 3 44 11 49 28



MET'MAP, your aeronautical weather chart ! - Copyright ORBIFLY December 2007 - Disclaimer

ORBIFLY MET'MAP TEAM :

Programming & Development : Alexandra Zaïnal
Concept & original design : Baudouin d'Aumeries
Assistance for programming : Marc-Olivier Méhu
Technical & hardware support : Manuel Goepfert

Contact : metmap@orbifly.com




SOURCES & CREDITS :

   NOAA